Flight Track Log - Related Links

Times and Time Zones

All times are in EDT time to prevent confusion due to time zone crossing. See the N312BL flight status page for this flight to view local times or setup timezone preferences in your user account.

Time Position Orientation Groundspeed Altitude Reporting Facility
EDT Latitude Longitude Course Direction KTS MPH feet Rate Location/Type
Sun 10:37:14 AM 41.5069 -73.1467 198° South 142 163 2,400  Level Boston Center
Sun 10:38:15 AM 41.4536 -73.1700 198° South 248 285 4,500 1,366 Climbing Boston Center
Sun 10:39:17 AM 41.3792 -73.1414 164° South 262 302 5,200 1,951 Climbing Boston Center
Sun 10:40:18 AM 41.3172 -73.0797 143° Southeast 273 314 8,500 1,869 Climbing Boston Center
Sun 10:41:19 AM 41.2611 -73.0308 147° Southeast 272 313 9,000 344 Climbing Boston Center
Sun 10:42:20 AM 41.1894 -72.9633 145° Southeast 306 352 9,200 1,033 Climbing Boston Center
Sun 10:43:21 AM 41.1172 -72.8956 145° Southeast 316 364 11,100 2,754 Climbing Boston Center
Sun 10:44:22 AM 41.0381 -72.8211 145° Southeast 297 342 14,800 2,951 Climbing Boston Center
Sun 10:45:23 AM 40.9856 -72.8006 164° South 218 251 17,100 1,967 Climbing Boston Center
Sun 10:46:24 AM 40.9486 -72.8314 212° Southwest 167 192 18,800 1,721 Climbing Boston Center
Sun 10:47:25 AM 40.9164 -72.8731 224° Southwest 156 180 20,600 1,721 Climbing Boston Center
Sun 10:48:26 AM 40.8847 -72.9158 226° Southwest 163 188 22,300 1,721 Climbing Boston Center
Sun 10:49:27 AM 40.8442 -72.9547 216° Southwest 179 206 24,100 1,610 Climbing Boston Center
Sun 10:50:29 AM 40.8011 -72.9950 215° Southwest 187 215 25,600 1,574 Climbing Boston Center
Sun 10:51:29 AM 40.7561 -73.0372 215° Southwest 197 227 27,300 1,587 Climbing Boston Center
Sun 10:52:30 AM 40.7131 -73.0792 216° Southwest 198 228 28,800 1,574 Climbing Boston Center
Sun 10:53:31 AM 40.6717 -73.1183 216° Southwest 187 215 30,500 1,220 Climbing Boston Center
Sun 10:54:33 AM 40.6297 -73.1581 216° Southwest 186 214 31,300 829 Climbing Boston Center
Sun 10:55:34 AM 40.5839 -73.1994 214° Southwest 197 227 32,200 934 Climbing Boston Center
Sun 10:56:35 AM 40.5256 -73.2550 216° Southwest 215 247 33,200 885 Climbing Boston Center
Sun 10:57:36 AM 40.4764 -73.3003 215° Southwest 216 249 34,000 393 Climbing Boston Center
Sun 10:58:37 AM 40.4219 -73.3528 216° Southwest 238 274 34,000  Level Boston Center
Sun 10:59:38 AM 40.3611 -73.4069 214° Southwest 260 299 34,000  Level Boston Center
Sun 11:00:39 AM 40.2983 -73.4650 215° Southwest 274 315 34,000  Level Boston Center
Sun 11:01:40 AM 40.2358 -73.5236 216° Southwest 276 318 34,000  Level Boston Center
Sun 11:02:42 AM 40.1769 -73.5797 216° Southwest 280 322 34,000  Level Boston Center
Sun 11:03:43 AM 40.1003 -73.6483 214° Southwest 279 321 34,000  Level Boston Center
Sun 11:04:44 AM 40.0464 -73.6978 215° Southwest 274 315 34,000  Level Boston Center
Sun 11:05:45 AM 39.9850 -73.7547 215° Southwest 270 311 34,000  Level Boston Center
Sun 11:06:46 AM 39.9258 -73.8097 215° Southwest 263 303 34,000  Level Boston Center
Sun 11:07:48 AM 39.8675 -73.8633 215° Southwest 258 297 34,000  Level Boston Center
Sun 11:08:49 AM 39.7983 -73.9261 215° Southwest 253 291 34,000  Level Boston Center
Sun 11:09:50 AM 39.7397 -73.9789 215° Southwest 254 292 34,000  Level Boston Center
Sun 11:10:51 AM 39.6814 -74.0319 215° Southwest 255 293 34,000  Level Boston Center
Sun 11:11:52 AM 39.6231 -74.0853 215° Southwest 256 295 34,000  Level Boston Center
Sun 11:12:54 AM 39.5642 -74.1383 215° Southwest 257 296 34,000  Level Boston Center
Sun 11:13:55 AM 39.5036 -74.1928 215° Southwest 262 302 34,000  Level Boston Center
Sun 11:14:56 AM 39.4444 -74.2453 214° Southwest 259 298 34,000  Level Boston Center
Sun 11:15:57 AM 39.3847 -74.2992 215° Southwest 261 300 34,000  Level Boston Center
Sun 11:16:58 AM 39.3239 -74.3536 215° Southwest 263 303 34,000  Level Boston Center
Sun 11:18:10 AM 39.2494 -74.4258 217° Southwest 262 302 34,000  Level Washington Center
Sun 11:19:11 AM 39.1894 -74.4775 214° Southwest 269 310 34,000  Level Washington Center
Sun 11:20:11 AM 39.1275 -74.5319 214° Southwest 269 310 34,000  Level Washington Center
Sun 11:21:12 AM 39.0675 -74.5836 214° Southwest 269 310 34,000  Level Washington Center
Sun 11:22:12 AM 39.0075 -74.6406 216° Southwest 269 310 34,000  Level Washington Center
Sun 11:23:12 AM 38.9453 -74.6922 213° Southwest 269 310 34,000  Level Washington Center
Sun 11:24:10 AM 38.8853 -74.7464 215° Southwest 269 310 34,000  Level Washington Center
Sun 11:25:11 AM 38.8208 -74.8003 213° Southwest 269 310 34,000  Level Washington Center
Sun 11:26:12 AM 38.7608 -74.8569 216° Southwest 275 316 34,000  Level Washington Center
Sun 11:27:10 AM 38.6986 -74.9106 214° Southwest 275 316 34,000  Level Washington Center
Sun 11:28:10 AM 38.6406 -74.9750 221° Southwest 275 316 34,000  Level Washington Center
Sun 11:29:11 AM 38.5847 -75.0339 220° Southwest 270 311 34,000  Level Washington Center
Sun 11:30:11 AM 38.5308 -75.0956 222° Southwest 270 311 34,000  Level Washington Center
Sun 11:31:12 AM 38.4725 -75.1567 219° Southwest 270 311 34,000  Level Washington Center
Sun 11:32:10 AM 38.4164 -75.2181 221° Southwest 270 311 34,000 -51 Level Washington Center
Sun 11:33:10 AM 38.3603 -75.2819 222° Southwest 270 311 33,900 -645 Descending Washington Center
Sun 11:34:11 AM 38.3000 -75.3511 222° Southwest 277 319 32,700 -934 Descending Washington Center
Sun 11:35:12 AM 38.2439 -75.4144 222° Southwest 277 319 32,000 -353 Descending Washington Center
Sun 11:36:10 AM 38.1856 -75.4781 221° Southwest 272 313 32,000  Level Washington Center
Sun 11:37:11 AM 38.1211 -75.5336 214° Southwest 280 322 32,000  Level Washington Center
Sun 11:38:11 AM 38.0606 -75.5997 221° Southwest 286 329 32,000  Level Washington Center
Sun 11:39:12 AM 38.0042 -75.6656 223° Southwest 286 329 32,000  Level Washington Center
Sun 11:40:10 AM 37.9436 -75.7339 222° Southwest 286 329 32,000  Level Washington Center
Sun 11:41:10 AM 37.8853 -75.7944 219° Southwest 286 329 32,000  Level Washington Center
Sun 11:42:11 AM 37.8203 -75.8600 219° Southwest 286 329 32,000  Level Washington Center
Sun 11:43:12 AM 37.7639 -75.9256 223° Southwest 286 329 32,000  Level Washington Center
Sun 11:44:10 AM 37.7033 -75.9908 220° Southwest 286 329 32,000  Level Washington Center
Sun 11:45:10 AM 37.6425 -76.0533 219° Southwest 292 336 32,000 -50 Level Washington Center
Sun 11:46:10 AM 37.5797 -76.1211 221° Southwest 292 336 31,900 -595 Descending Washington Center
Sun 11:47:11 AM 37.5169 -76.1808 217° Southwest 292 336 30,800 -934 Descending Washington Center
Sun 11:48:12 AM 37.4581 -76.2433 220° Southwest 287 330 30,000 -595 Descending Washington Center
Sun 11:49:12 AM 37.3972 -76.3056 219° Southwest 287 330 29,600 -908 Descending Washington Center
Sun 11:50:11 AM 37.3342 -76.3728 220° Southwest 282 325 28,200 -1,361 Descending Washington Center
Sun 11:51:11 AM 37.2692 -76.4347 217° Southwest 289 333 26,900 -1,240 Descending Washington Center
Sun 11:52:12 AM 37.2039 -76.5072 222° Southwest 301 346 25,700 -1,261 Descending Washington Center
Sun 11:53:10 AM 37.1389 -76.5767 220° Southwest 307 353 24,400 -1,361 Descending Washington Center
Sun 11:54:11 AM 37.0714 -76.6461 219° Southwest 312 359 23,000 -1,240 Descending Washington Center
Sun 11:55:11 AM 37.0164 -76.7286 230° Southwest 312 359 21,900 -1,190 Descending Washington Center
Sun 11:56:12 AM 36.9656 -76.8136 233° Southwest 306 352 20,600 -958 Descending Washington Center
Sun 11:57:10 AM 36.9125 -76.8958 231° Southwest 306 352 20,000 -303 Descending Washington Center
Sun 11:58:11 AM 36.8639 -76.9703 231° Southwest 301 346 20,000  Level Washington Center
Sun 11:59:12 AM 36.8150 -77.0422 230° Southwest 290 334 20,000  Level Washington Center
Sun 12:00:10 PM 36.7681 -77.1192 233° Southwest 284 327 20,000  Level Washington Center
Sun 12:01:11 PM 36.7169 -77.1933 229° Southwest 284 327 20,000  Level Washington Center
Sun 12:02:12 PM 36.6700 -77.2675 232° Southwest 284 327 20,000  Level Washington Center
Sun 12:03:10 PM 36.6211 -77.3414 231° Southwest 279 321 20,000  Level Washington Center
Sun 12:04:10 PM 36.5742 -77.4128 231° Southwest 279 321 20,000  Level Washington Center
Sun 12:05:11 PM 36.5269 -77.4867 232° Southwest 279 321 20,000  Level Washington Center
Sun 12:06:12 PM 36.4800 -77.5578 231° Southwest 279 321 20,000  Level Washington Center
Sun 12:07:12 PM 36.4308 -77.6314 230° Southwest 279 321 20,000  Level Washington Center
Sun 12:08:10 PM 36.3836 -77.7075 232° Southwest 279 321 20,000  Level Washington Center
Sun 12:09:10 PM 36.3342 -77.7811 230° Southwest 279 321 20,000  Level Washington Center
Sun 12:10:11 PM 36.2828 -77.8544 229° Southwest 279 321 20,000  Level Washington Center
Sun 12:11:11 PM 36.2356 -77.9328 233° Southwest 279 321 20,000  Level Washington Center
Sun 12:12:12 PM 36.1839 -78.0058 229° Southwest 279 321 20,000  Level Washington Center
Sun 12:13:12 PM 36.1322 -78.0814 230° Southwest 279 321 20,000  Level Washington Center
Sun 12:14:10 PM 36.0828 -78.1569 231° Southwest 284 327 20,000 -305 Level Washington Center
Sun 12:15:10 PM 36.0331 -78.2300 230° Southwest 284 327 19,400 -690 Descending Washington Center
Sun 12:15:37 PM 36.0050 -78.2700 229° Southwest 292 336 19,000 -1,077 Descending Washington Center
Sun 12:15:49 PM 35.9964 -78.2825 230° Southwest 295 339 18,700 -1,455 Descending Washington Center
Sun 12:16:10 PM 35.9769 -78.3153 234° Southwest 299 344 18,200 -1,279 Descending Washington Center
Sun 12:16:50 PM 35.9403 -78.3653 228° Southwest 330 380 17,400 -1,180 Descending Washington Center
Sun 12:17:11 PM 35.9253 -78.3878 231° Southwest 311 358 17,000 -1,545 Descending Washington Center
Sun 12:17:56 PM 35.8733 -78.4631 230° Southwest 319 367 15,700 -1,600 Descending Washington Center
Sun 12:18:11 PM 35.8647 -78.4806 239° Southwest 321 369 15,400 -1,742 Descending Washington Center
Sun 12:18:58 PM 35.8194 -78.5403 227° Southwest 305 351 13,900 -1,831 Descending Washington Center
Sun 12:19:10 PM 35.8125 -78.5581 244° Southwest 321 369 13,600 -1,574 Descending Washington Center
Sun 12:19:59 PM 35.7672 -78.6178 227° Southwest 285 328 12,300 -1,574 Descending Washington Center
Sun 12:20:11 PM 35.7606 -78.6356 245° Southwest 310 357 12,000 -1,500 Descending Washington Center
Sun 12:20:59 PM 35.7156 -78.6822 220° Southwest 264 304 10,800 -1,475 Descending Washington Center
Sun 12:21:12 PM 35.7069 -78.6947 230° Southwest 287 330 10,500 -1,479 Descending Washington Center
Sun 12:22:12 PM 35.6450 -78.7436 213° Southwest 274 315 9,000 -1,475 Descending Washington Center
Sun 12:23:10 PM 35.6017 -78.8056 229° Southwest 264 304 7,600 -1,462 Descending Washington Center
Sun 12:24:11 PM 35.5581 -78.8781 234° Southwest 269 310 6,100 -1,587 Descending Washington Center
Sun 12:25:11 PM 35.5186 -78.9428 233° Southwest 264 304 4,400 -1,700 Descending Washington Center
Sun 12:27:00 PM 35.4458 -79.0730 231° Southwest  Level FlightAware Approximate
Sun 12:34:00 PM 35.2333 -79.3833 239° Southwest  Level FlightAware Approximate
Sun 12:35:00 PM 35.2374 -79.3890 239° Southwest  Level Estimated
Sun 12:36:00 PM 35.2333 -79.3833 239° Southwest  Level FlightAware Approximate

Login

Don't have an account? Register now (free) for customized features, flight alerts, and more!